createdAt,value
2018-03-02T00:01:33.653Z,-1.06
2018-03-02T00:04:01.258Z,-1.00
2018-03-02T00:06:29.399Z,-1.05
2018-03-02T00:08:57.034Z,-1.55
2018-03-02T00:11:24.712Z,-1.80
2018-03-02T00:13:52.375Z,-1.89
2018-03-02T00:16:19.986Z,-1.81
2018-03-02T00:18:47.530Z,-1.79
2018-03-02T00:21:15.119Z,-1.80
2018-03-02T00:23:42.676Z,-1.78
2018-03-02T00:26:10.262Z,-1.77
2018-03-02T00:28:37.867Z,-1.59
2018-03-02T00:31:05.739Z,-1.56
2018-03-02T00:33:33.656Z,-1.52
2018-03-02T00:36:01.267Z,-1.79
2018-03-02T00:38:28.850Z,-1.89
2018-03-02T00:40:56.603Z,-1.96
2018-03-02T00:43:24.153Z,-1.98
2018-03-02T00:45:51.707Z,-2.08
2018-03-02T00:48:19.299Z,-2.03
2018-03-02T00:50:46.842Z,-2.03
2018-03-02T00:53:14.430Z,-1.96
2018-03-02T00:55:42.062Z,-2.00
2018-03-02T00:58:09.650Z,-1.91
2018-03-02T01:00:37.202Z,-1.98
2018-03-02T01:03:04.983Z,-1.97
2018-03-02T01:05:32.748Z,-2.08
2018-03-02T01:08:00.565Z,-1.80
2018-03-02T01:10:28.107Z,-1.50
2018-03-02T01:12:55.690Z,-1.68
2018-03-02T01:15:23.240Z,-1.75
2018-03-02T01:17:50.793Z,-1.49
2018-03-02T01:20:18.373Z,-1.33
2018-03-02T01:22:45.927Z,-1.29
2018-03-02T01:25:13.506Z,-0.80
2018-03-02T01:27:41.587Z,-0.40
2018-03-02T01:30:09.164Z,-0.36
2018-03-02T01:32:36.744Z,-0.03
2018-03-02T01:35:04.339Z,-0.54
2018-03-02T01:37:31.955Z,-0.48
2018-03-02T01:39:59.530Z,-0.21
2018-03-02T01:42:27.146Z,-0.08
2018-03-02T01:44:54.722Z,0.38
2018-03-02T01:47:22.262Z,0.06
2018-03-02T01:49:49.854Z,-0.57
2018-03-02T01:52:17.714Z,-0.18
2018-03-02T01:54:45.295Z,0.25
2018-03-02T01:57:13.004Z,0.06
2018-03-02T01:59:40.984Z,0.29
2018-03-02T02:02:08.606Z,-0.15
2018-03-02T02:04:36.514Z,0.06
2018-03-02T02:07:04.111Z,-0.09
2018-03-02T02:09:31.663Z,-0.55
2018-03-02T02:11:59.206Z,-0.65
2018-03-02T02:14:26.797Z,-0.49
2018-03-02T02:16:54.716Z,-0.50
2018-03-02T02:19:22.305Z,-0.49
2018-03-02T02:21:49.848Z,-0.53
2018-03-02T02:24:17.828Z,-0.12
2018-03-02T02:26:45.379Z,-0.31
2018-03-02T02:29:12.971Z,-0.36
2018-03-02T02:31:40.528Z,-0.69
2018-03-02T02:34:08.171Z,-0.78
2018-03-02T02:36:35.762Z,-0.81
2018-03-02T02:39:04.260Z,-0.18
2018-03-02T02:41:31.910Z,-0.31
2018-03-02T02:43:59.519Z,-0.90
2018-03-02T02:46:27.403Z,-1.28
2018-03-02T02:48:54.952Z,-1.35
2018-03-02T02:51:22.543Z,-1.46
2018-03-02T02:53:50.125Z,-2.04
2018-03-02T02:56:17.670Z,-2.13
2018-03-02T02:58:46.107Z,-2.02
2018-03-02T03:01:13.654Z,-1.74
2018-03-02T03:03:41.226Z,-1.49
2018-03-02T03:06:09.251Z,-0.97
2018-03-02T03:08:37.278Z,-1.10
2018-03-02T03:11:04.878Z,-1.18
2018-03-02T03:13:32.431Z,-1.45
2018-03-02T03:16:00.092Z,-1.58
2018-03-02T03:18:27.634Z,-1.39
2018-03-02T03:20:55.231Z,-0.77
2018-03-02T03:23:22.863Z,-0.78
2018-03-02T03:25:50.415Z,-1.19
2018-03-02T03:28:18.010Z,-1.46
2018-03-02T03:30:45.614Z,-0.91
2018-03-02T03:33:13.168Z,-0.81
2018-03-02T03:35:40.714Z,-0.62
2018-03-02T03:38:08.330Z,-0.74
2018-03-02T03:40:35.882Z,-0.97
2018-03-02T03:43:03.486Z,-1.02
2018-03-02T03:45:31.030Z,-1.37
2018-03-02T03:47:58.577Z,-1.03
2018-03-02T03:50:26.667Z,-0.42
2018-03-02T03:52:54.506Z,-0.68
2018-03-02T03:55:22.340Z,-0.48
2018-03-02T03:57:49.924Z,-0.07
2018-03-02T04:00:17.475Z,-0.60
2018-03-02T04:02:46.036Z,-0.52
2018-03-02T04:05:13.647Z,-0.29
2018-03-02T04:07:41.227Z,0.06
2018-03-02T04:10:08.838Z,0.26
2018-03-02T04:12:36.431Z,0.68
2018-03-02T04:15:04.195Z,0.78
2018-03-02T04:17:31.741Z,0.22
2018-03-02T04:19:59.466Z,0.51
2018-03-02T04:22:27.005Z,-0.05
2018-03-02T04:24:54.582Z,-0.64
2018-03-02T04:27:22.189Z,-1.05
2018-03-02T04:29:49.735Z,-1.32
2018-03-02T04:32:17.287Z,-1.41
2018-03-02T04:34:44.858Z,-1.16
2018-03-02T04:37:12.443Z,-0.84
2018-03-02T04:39:40.322Z,-0.77
2018-03-02T04:42:08.087Z,-0.61
2018-03-02T04:44:35.675Z,-0.77
2018-03-02T04:47:03.214Z,-0.40
2018-03-02T04:49:30.798Z,0.05
2018-03-02T04:51:58.338Z,-0.02
2018-03-02T04:54:25.922Z,-0.47
2018-03-02T04:56:53.470Z,-0.45
2018-03-02T04:59:22.357Z,-0.54
2018-03-02T05:01:50.866Z,-0.79
2018-03-02T05:04:18.419Z,-0.54
2018-03-02T05:06:46.024Z,-0.52
2018-03-02T05:09:14.039Z,-0.14
2018-03-02T05:11:42.110Z,-0.13
2018-03-02T05:14:09.715Z,-0.33
2018-03-02T05:16:37.275Z,-0.02
2018-03-02T05:19:04.822Z,0.51
2018-03-02T05:21:32.398Z,1.06
2018-03-02T05:24:00.278Z,1.53
2018-03-02T05:26:28.389Z,1.84
2018-03-02T05:28:56.325Z,1.99
2018-03-02T05:31:24.490Z,2.11
2018-03-02T05:33:52.039Z,2.25
2018-03-02T05:36:19.655Z,2.27
2018-03-02T05:38:47.190Z,2.34
2018-03-02T05:41:14.767Z,2.06
2018-03-02T05:43:42.366Z,2.11
2018-03-02T05:46:10.308Z,1.63
2018-03-02T05:48:37.961Z,1.90
2018-03-02T05:51:05.507Z,1.75
2018-03-02T05:53:33.488Z,1.33
2018-03-02T05:56:01.394Z,0.72
2018-03-02T05:58:29.768Z,0.59
2018-03-02T06:00:58.320Z,0.24
2018-03-02T06:03:25.878Z,0.18
2018-03-02T06:05:53.426Z,0.23
2018-03-02T06:08:21.014Z,0.06
2018-03-02T06:10:48.588Z,0.01
2018-03-02T06:13:17.142Z,-0.37
2018-03-02T06:15:45.382Z,-0.43
2018-03-02T06:18:13.920Z,-0.30
2018-03-02T06:20:41.740Z,-0.29
2018-03-02T06:23:09.352Z,-0.18
2018-03-02T06:25:36.942Z,-0.18
2018-03-02T06:28:04.505Z,-0.17
2018-03-02T06:30:32.719Z,-0.20
2018-03-02T06:33:00.269Z,-0.21
2018-03-02T06:35:27.901Z,-0.13
2018-03-02T06:37:55.782Z,0.06
2018-03-02T06:40:23.326Z,0.05
2018-03-02T06:42:50.920Z,0.28
2018-03-02T06:45:18.873Z,0.30
2018-03-02T06:47:46.427Z,0.32
2018-03-02T06:50:14.014Z,0.29
2018-03-02T06:52:41.843Z,0.64
2018-03-02T06:55:09.809Z,0.80
2018-03-02T06:57:37.416Z,0.59
2018-03-02T07:00:05.827Z,0.87
2018-03-02T07:02:33.659Z,0.94
2018-03-02T07:05:01.239Z,0.56
2018-03-02T07:07:29.191Z,0.73
2018-03-02T07:09:56.750Z,0.72
2018-03-02T07:12:25.268Z,0.73
2018-03-02T07:14:53.078Z,0.45
2018-03-02T07:17:20.666Z,0.55
2018-03-02T07:19:48.247Z,0.59
2018-03-02T07:22:16.736Z,0.41
2018-03-02T07:24:44.682Z,0.44
2018-03-02T07:27:12.227Z,0.61
2018-03-02T07:29:39.810Z,0.50
2018-03-02T07:32:08.150Z,0.52
2018-03-02T07:34:36.132Z,0.57
2018-03-02T07:37:03.712Z,0.59
2018-03-02T07:39:31.315Z,0.79
2018-03-02T07:41:58.895Z,0.81
2018-03-02T07:44:26.443Z,0.75
2018-03-02T07:46:54.402Z,0.91
2018-03-02T07:49:21.967Z,0.85
2018-03-02T07:51:49.555Z,0.90
2018-03-02T07:54:17.497Z,1.01
2018-03-02T07:56:45.090Z,1.02
2018-03-02T07:59:12.631Z,0.97
2018-03-02T08:01:40.187Z,1.01
2018-03-02T08:04:08.069Z,1.15
2018-03-02T08:06:35.606Z,1.26
2018-03-02T08:09:03.600Z,1.24
2018-03-02T08:11:31.431Z,1.52
2018-03-02T08:13:59.006Z,1.28
2018-03-02T08:16:26.628Z,1.84
2018-03-02T08:18:54.361Z,2.45
2018-03-02T08:21:21.905Z,2.40
2018-03-02T08:23:49.576Z,1.90
2018-03-02T08:26:17.309Z,1.68
2018-03-02T08:28:44.892Z,2.04
2018-03-02T08:31:12.482Z,2.15
2018-03-02T08:33:40.023Z,2.12
2018-03-02T08:36:07.602Z,2.18
2018-03-02T08:38:35.419Z,2.61
2018-03-02T08:41:03.919Z,2.66
2018-03-02T08:43:31.835Z,2.69
2018-03-02T08:45:59.398Z,2.64
2018-03-02T08:48:27.192Z,2.66
2018-03-02T08:50:54.947Z,2.56
2018-03-02T08:53:22.559Z,2.40
2018-03-02T08:55:50.404Z,2.53
2018-03-02T08:58:18.348Z,2.17
2018-03-02T09:00:45.950Z,2.62
2018-03-02T09:03:13.840Z,3.04
2018-03-02T09:05:41.803Z,3.50
2018-03-02T09:08:10.252Z,3.76
2018-03-02T09:10:38.298Z,3.75
2018-03-02T09:13:05.840Z,3.92
2018-03-02T09:15:33.861Z,3.78
2018-03-02T09:18:01.584Z,3.18
2018-03-02T09:20:29.387Z,3.19
2018-03-02T09:22:57.125Z,3.77
2018-03-02T09:25:24.723Z,4.24
2018-03-02T09:27:52.552Z,4.60
2018-03-02T09:30:20.142Z,3.72
2018-03-02T09:32:48.559Z,3.39
2018-03-02T09:35:16.155Z,3.45
2018-03-02T09:37:43.740Z,4.03
2018-03-02T09:40:11.275Z,3.62
2018-03-02T09:42:38.868Z,3.10
2018-03-02T09:45:06.567Z,2.76
2018-03-02T09:47:34.920Z,2.76
2018-03-02T09:50:03.094Z,2.70
2018-03-02T09:52:30.669Z,2.65
2018-03-02T09:54:58.259Z,2.72
2018-03-02T09:57:26.155Z,2.63
2018-03-02T09:59:55.044Z,2.70
2018-03-02T10:02:22.960Z,2.54
2018-03-02T10:04:51.444Z,2.61
2018-03-02T10:07:19.100Z,2.79
2018-03-02T10:09:47.014Z,2.70
2018-03-02T10:12:15.400Z,2.94
2018-03-02T10:14:43.320Z,2.82
2018-03-02T10:17:10.906Z,2.94
2018-03-02T10:19:38.447Z,2.64
2018-03-02T10:22:06.051Z,2.65
2018-03-02T10:24:34.023Z,2.80
2018-03-02T10:27:02.768Z,2.77
2018-03-02T10:29:30.360Z,2.56
2018-03-02T10:31:57.969Z,2.44
2018-03-02T10:34:25.560Z,2.40
2018-03-02T10:36:53.146Z,2.98
2018-03-02T10:39:20.747Z,3.24
2018-03-02T10:41:48.365Z,3.28
2018-03-02T10:44:15.983Z,3.32
2018-03-02T10:46:43.526Z,3.40
2018-03-02T10:49:11.149Z,3.63
2018-03-02T10:51:38.682Z,3.83
2018-03-02T10:54:06.338Z,3.85
2018-03-02T10:56:33.921Z,3.23
2018-03-02T10:59:01.471Z,3.09
2018-03-02T11:01:29.566Z,3.48
2018-03-02T11:04:01.048Z,3.91
2018-03-02T11:06:28.663Z,4.22
2018-03-02T11:08:56.235Z,4.49
2018-03-02T11:11:23.889Z,4.75
2018-03-02T11:13:51.474Z,4.87
2018-03-02T11:16:19.043Z,5.00
2018-03-02T11:18:46.633Z,5.18
2018-03-02T11:21:14.220Z,5.23
2018-03-02T11:23:41.879Z,5.26
2018-03-02T11:26:09.489Z,5.41
2018-03-02T11:28:38.628Z,5.45
2018-03-02T11:31:06.214Z,5.46
2018-03-02T11:33:33.883Z,5.19
2018-03-02T11:36:02.564Z,4.08
2018-03-02T11:38:30.118Z,3.64
2018-03-02T11:40:57.740Z,3.12
2018-03-02T11:43:26.195Z,3.01
2018-03-02T11:45:53.758Z,2.86
2018-03-02T11:48:23.296Z,2.84
2018-03-02T11:50:51.304Z,3.41
2018-03-02T11:53:18.930Z,3.57
2018-03-02T11:55:47.148Z,3.70
2018-03-02T11:58:14.691Z,3.68
2018-03-02T12:00:42.279Z,3.81
2018-03-02T12:03:09.838Z,3.71
2018-03-02T12:05:37.495Z,4.08
2018-03-02T12:08:05.114Z,4.60
2018-03-02T12:10:33.863Z,4.67
2018-03-02T12:13:02.350Z,4.55
2018-03-02T12:15:29.943Z,4.23
2018-03-02T12:17:57.492Z,4.06
2018-03-02T12:20:25.579Z,3.93
2018-03-02T12:22:53.154Z,4.01
2018-03-02T12:25:21.342Z,4.37
2018-03-02T12:27:49.334Z,4.76
2018-03-02T12:30:20.776Z,4.92
2018-03-02T12:32:49.580Z,5.11
2018-03-02T12:35:17.579Z,5.35
2018-03-02T12:37:45.164Z,5.54
2018-03-02T12:40:12.846Z,5.68
2018-03-02T12:42:41.574Z,5.98
2018-03-02T12:45:09.153Z,6.00
2018-03-02T12:47:36.805Z,6.27
2018-03-02T12:50:05.803Z,6.24
2018-03-02T12:52:33.355Z,6.42
2018-03-02T12:55:00.939Z,6.66
2018-03-02T12:57:28.532Z,6.83
2018-03-02T12:59:56.105Z,6.93
2018-03-02T13:02:23.695Z,6.87
2018-03-02T13:04:51.430Z,7.23
2018-03-02T13:07:19.778Z,7.47
2018-03-02T13:09:47.386Z,6.83
2018-03-02T13:12:15.896Z,6.92
2018-03-02T13:14:43.480Z,7.08
2018-03-02T13:17:13.189Z,6.59
2018-03-02T13:19:40.762Z,6.41
2018-03-02T13:22:20.106Z,6.51
2018-03-02T13:24:48.597Z,6.45
2018-03-02T13:27:27.757Z,6.48
2018-03-02T13:29:55.294Z,6.60
2018-03-02T13:32:22.852Z,6.51
2018-03-02T13:35:02.013Z,6.61
2018-03-02T13:37:30.096Z,6.61
2018-03-02T13:40:09.526Z,6.60
2018-03-02T13:42:38.839Z,5.73
2018-03-02T13:45:06.428Z,5.80
2018-03-02T13:50:50.990Z,6.14
2018-03-02T13:53:18.571Z,6.06
2018-03-02T13:55:46.146Z,6.07
2018-03-02T13:58:14.790Z,6.20
2018-03-02T14:00:42.398Z,6.24
2018-03-02T14:03:22.115Z,6.33
2018-03-02T14:05:49.711Z,6.35
2018-03-02T14:08:17.306Z,6.12
2018-03-02T14:10:45.169Z,5.68
2018-03-02T14:13:12.717Z,5.33
2018-03-02T14:15:40.320Z,5.44
2018-03-02T14:18:07.902Z,5.65
2018-03-02T14:20:36.017Z,5.87
2018-03-02T14:23:03.616Z,5.93
2018-03-02T14:25:32.142Z,6.07
2018-03-02T14:27:59.714Z,6.28
2018-03-02T14:30:28.196Z,6.42
2018-03-02T14:32:56.877Z,6.42
2018-03-02T14:35:24.483Z,6.24
2018-03-02T14:37:52.935Z,6.00
2018-03-02T14:40:20.489Z,5.80
2018-03-02T14:42:48.512Z,5.55
2018-03-02T14:45:16.064Z,5.66
2018-03-02T14:47:43.657Z,5.85
2018-03-02T14:50:11.264Z,5.97
2018-03-02T14:52:38.802Z,5.98
2018-03-02T14:55:06.375Z,6.04
2018-03-02T14:57:34.832Z,5.86
2018-03-02T15:00:03.592Z,5.86
2018-03-02T15:02:31.147Z,5.92
2018-03-02T15:04:59.913Z,5.85
2018-03-02T15:07:27.519Z,5.99
2018-03-02T15:09:56.105Z,6.04
2018-03-02T15:12:24.221Z,6.10
2018-03-02T15:14:51.778Z,5.71
2018-03-02T15:17:19.384Z,5.36
2018-03-02T15:19:46.927Z,5.41
2018-03-02T15:22:14.480Z,5.51
2018-03-02T15:24:42.082Z,5.53
2018-03-02T15:27:10.266Z,5.64
2018-03-02T15:29:38.655Z,5.51
2018-03-02T15:32:06.200Z,5.61
2018-03-02T15:34:35.587Z,5.46
2018-03-02T15:37:03.164Z,5.48
2018-03-02T15:39:30.757Z,5.54
2018-03-02T15:41:58.359Z,5.26
2018-03-02T15:44:25.902Z,4.93
2018-03-02T15:46:54.230Z,4.59
2018-03-02T15:49:21.819Z,4.38
2018-03-02T15:51:49.558Z,4.46
2018-03-02T15:54:17.168Z,4.29
2018-03-02T15:56:45.514Z,4.46
2018-03-02T15:59:13.667Z,4.41
2018-03-02T16:01:42.924Z,4.50
2018-03-02T16:04:11.595Z,4.67
2018-03-02T16:06:39.142Z,4.65
2018-03-02T16:09:07.675Z,4.83
2018-03-02T16:11:35.227Z,4.94
2018-03-02T16:14:03.026Z,5.10
2018-03-02T16:16:30.692Z,4.41
2018-03-02T16:18:58.784Z,4.55
2018-03-02T16:21:26.377Z,4.79
2018-03-02T16:23:53.987Z,5.00
2018-03-02T16:26:21.546Z,4.97
2018-03-02T16:28:49.716Z,5.01
2018-03-02T16:31:17.343Z,5.09
2018-03-02T16:33:45.433Z,4.46
2018-03-02T16:36:13.495Z,4.26
2018-03-02T16:38:41.395Z,4.17
2018-03-02T16:41:08.972Z,4.30
2018-03-02T16:43:36.558Z,4.18
2018-03-02T16:46:04.106Z,4.23
2018-03-02T16:48:31.704Z,4.24
2018-03-02T16:51:00.606Z,4.30
2018-03-02T16:53:28.216Z,4.50
2018-03-02T16:55:55.972Z,4.28
2018-03-02T16:58:23.874Z,3.74
2018-03-02T17:00:52.492Z,3.81
2018-03-02T17:03:20.076Z,3.75
2018-03-02T17:05:47.677Z,4.07
2018-03-02T17:08:16.792Z,4.33
2018-03-02T17:10:44.773Z,4.29
2018-03-02T17:13:13.430Z,3.85
2018-03-02T17:15:41.488Z,3.23
2018-03-02T17:18:10.158Z,3.11
2018-03-02T17:20:37.705Z,2.77
2018-03-02T17:23:06.336Z,2.51
2018-03-02T17:25:34.310Z,2.72
2018-03-02T17:28:02.297Z,2.59
2018-03-02T17:30:31.797Z,2.68
2018-03-02T17:32:59.901Z,3.24
2018-03-02T17:35:27.698Z,3.64
2018-03-02T17:37:55.325Z,3.88
2018-03-02T17:40:22.895Z,4.07
2018-03-02T17:42:50.997Z,4.23
2018-03-02T17:45:19.240Z,4.35
2018-03-02T17:47:47.534Z,4.50
2018-03-02T17:50:15.729Z,4.30
2018-03-02T17:52:44.476Z,4.35
2018-03-02T17:55:12.301Z,3.80
2018-03-02T17:57:40.447Z,3.33
2018-03-02T18:00:09.333Z,3.01
2018-03-02T18:02:37.844Z,2.69
2018-03-02T18:05:05.871Z,2.51
2018-03-02T18:07:34.714Z,2.52
2018-03-02T18:10:02.341Z,2.39
2018-03-02T18:12:30.250Z,2.47
2018-03-02T18:14:58.145Z,2.52
2018-03-02T18:17:30.037Z,2.65
2018-03-02T18:19:58.207Z,3.06
2018-03-02T18:22:27.286Z,2.82
2018-03-02T18:24:55.344Z,2.55
2018-03-02T18:27:23.582Z,2.40
2018-03-02T18:29:52.270Z,2.46
2018-03-02T18:32:20.668Z,2.28
2018-03-02T18:34:49.324Z,2.56
2018-03-02T18:37:18.193Z,2.46
2018-03-02T18:39:46.168Z,2.57
2018-03-02T18:42:13.769Z,2.87
2018-03-02T18:44:41.392Z,2.52
2018-03-02T18:47:09.962Z,2.33
2018-03-02T18:49:37.734Z,2.35
2018-03-02T18:52:06.346Z,2.66
2018-03-02T18:54:33.953Z,3.12
2018-03-02T18:57:01.503Z,3.01
2018-03-02T18:59:29.406Z,2.73
2018-03-02T19:01:58.724Z,2.58
2018-03-02T19:04:27.008Z,2.56
2018-03-02T19:06:55.025Z,2.41
2018-03-02T19:09:23.032Z,2.26
2018-03-02T19:11:51.318Z,2.15
2018-03-02T19:14:19.558Z,2.38
2018-03-02T19:16:48.299Z,2.61
2018-03-02T19:19:16.775Z,2.97
2018-03-02T19:21:45.508Z,3.28
2018-03-02T19:24:13.735Z,2.89
2018-03-02T19:26:41.360Z,2.51
2018-03-02T19:29:09.032Z,2.33
2018-03-02T19:31:37.776Z,2.41
2018-03-02T19:34:08.786Z,2.51
2018-03-02T19:36:37.478Z,2.27
2018-03-02T19:39:05.868Z,2.31
2018-03-02T19:41:34.321Z,2.45
2018-03-02T19:44:03.940Z,2.39
2018-03-02T19:46:32.303Z,2.45
2018-03-02T19:49:03.546Z,2.37
2018-03-02T19:51:31.909Z,2.64
2018-03-02T19:54:00.200Z,2.90
2018-03-02T19:56:28.777Z,3.08
2018-03-02T19:58:57.583Z,2.82
2018-03-02T20:01:26.156Z,3.21
2018-03-02T20:03:55.141Z,3.59
2018-03-02T20:06:23.633Z,3.78
2018-03-02T20:08:51.821Z,3.65
2018-03-02T20:11:20.093Z,3.77
2018-03-02T20:13:48.694Z,3.92
2018-03-02T20:16:17.983Z,4.05
2018-03-02T20:18:46.035Z,4.18
2018-03-02T20:21:15.747Z,3.82
2018-03-02T20:23:44.174Z,2.86
2018-03-02T20:26:12.934Z,2.83
2018-03-02T20:28:40.703Z,3.29
2018-03-02T20:31:08.707Z,3.46
2018-03-02T20:33:37.204Z,3.51
2018-03-02T20:36:05.986Z,3.53
2018-03-02T20:38:35.045Z,3.63
2018-03-02T20:41:02.607Z,3.50
2018-03-02T20:43:30.571Z,3.10
2018-03-02T20:45:58.788Z,3.31
2018-03-02T20:48:26.398Z,3.49
2018-03-02T20:50:54.724Z,3.26
2018-03-02T20:53:22.377Z,3.55
2018-03-02T20:55:49.958Z,3.75
2018-03-02T20:58:18.123Z,2.95
2018-03-02T21:00:45.755Z,2.44
2018-03-02T21:03:13.320Z,2.13
2018-03-02T21:05:40.945Z,1.91
2018-03-02T21:08:10.203Z,2.00
2018-03-02T21:10:38.491Z,2.52
2018-03-02T21:13:06.047Z,2.89
2018-03-02T21:15:33.680Z,2.79
2018-03-02T21:18:01.248Z,3.13
2018-03-02T21:20:29.661Z,3.23
2018-03-02T21:22:57.634Z,3.22
2018-03-02T21:25:25.533Z,3.55
2018-03-02T21:27:53.141Z,3.24
2018-03-02T21:30:21.238Z,2.45
2018-03-02T21:32:49.412Z,1.93
2018-03-02T21:35:16.985Z,2.14
2018-03-02T21:37:44.589Z,2.28
2018-03-02T21:40:13.096Z,2.75
2018-03-02T21:42:40.700Z,3.08
2018-03-02T21:45:08.674Z,3.33
2018-03-02T21:47:37.009Z,3.23
2018-03-02T21:50:04.580Z,2.56
2018-03-02T21:52:32.185Z,2.20
2018-03-02T21:54:59.742Z,1.89
2018-03-02T21:57:27.856Z,1.91
2018-03-02T21:59:55.461Z,2.40
2018-03-02T22:02:23.011Z,2.75
2018-03-02T22:04:50.620Z,3.10
2018-03-02T22:07:18.175Z,3.28
2018-03-02T22:09:46.582Z,3.52
2018-03-02T22:12:14.988Z,3.51
2018-03-02T22:14:42.562Z,2.81
2018-03-02T22:17:10.629Z,2.27
2018-03-02T22:19:39.025Z,2.14
2018-03-02T22:22:06.571Z,2.20
2018-03-02T22:24:34.192Z,2.06
2018-03-02T22:27:01.796Z,2.08
2018-03-02T22:29:29.356Z,2.39
2018-03-02T22:31:57.304Z,2.48
2018-03-02T22:34:24.897Z,2.58
2018-03-02T22:36:52.447Z,2.42
2018-03-02T22:39:20.118Z,2.23
2018-03-02T22:41:47.639Z,2.12
2018-03-02T22:44:15.236Z,2.27
2018-03-02T22:46:42.823Z,2.05
2018-03-02T22:49:10.370Z,1.90
2018-03-02T22:51:38.437Z,1.87
2018-03-02T22:54:05.993Z,2.16
2018-03-02T22:56:33.584Z,2.64
2018-03-02T22:59:01.468Z,2.95
2018-03-02T23:01:29.028Z,2.45
2018-03-02T23:03:57.093Z,2.34
2018-03-02T23:06:24.688Z,2.77
2018-03-02T23:08:52.245Z,2.65
2018-03-02T23:11:19.828Z,2.56
2018-03-02T23:13:47.909Z,3.09
2018-03-02T23:16:15.920Z,3.48
2018-03-02T23:18:43.526Z,3.72
2018-03-02T23:21:11.079Z,3.92
2018-03-02T23:23:38.699Z,4.11
2018-03-02T23:26:06.296Z,3.99
2018-03-02T23:28:33.887Z,3.59
2018-03-02T23:31:01.496Z,3.17
2018-03-02T23:33:29.452Z,2.55
2018-03-02T23:35:57.055Z,2.15
2018-03-02T23:38:25.109Z,2.57
2018-03-02T23:40:52.656Z,2.23
2018-03-02T23:43:20.600Z,2.34
2018-03-02T23:45:48.190Z,2.83
2018-03-02T23:48:16.754Z,2.20
2018-03-02T23:50:44.347Z,2.42
2018-03-02T23:53:11.905Z,1.90
2018-03-02T23:55:39.493Z,1.26
2018-03-02T23:58:07.430Z,1.21
